sensor_id;sensor_type;location;lat;lon;timestamp;temperature;humidity
4453;DHT22;2239;48.152;11.584;2022-07-29T00:01:21;20.80;99.90
4453;DHT22;2239;48.152;11.584;2022-07-29T00:03:47;20.80;99.90
4453;DHT22;2239;48.152;11.584;2022-07-29T00:06:14;20.80;99.90
4453;DHT22;2239;48.152;11.584;2022-07-29T00:08:39;20.80;99.90
4453;DHT22;2239;48.152;11.584;2022-07-29T00:11:05;20.70;99.90
4453;DHT22;2239;48.152;11.584;2022-07-29T00:13:31;20.80;99.90
4453;DHT22;2239;48.152;11.584;2022-07-29T00:15:57;20.70;99.90
4453;DHT22;2239;48.152;11.584;2022-07-29T00:18:22;20.60;99.90
4453;DHT22;2239;48.152;11.584;2022-07-29T00:20:48;20.60;99.90
4453;DHT22;2239;48.152;11.584;2022-07-29T00:23:13;20.60;99.90
4453;DHT22;2239;48.152;11.584;2022-07-29T00:25:39;20.60;99.90
4453;DHT22;2239;48.152;11.584;2022-07-29T00:28:05;20.60;99.90
4453;DHT22;2239;48.152;11.584;2022-07-29T00:30:31;20.60;99.90
4453;DHT22;2239;48.152;11.584;2022-07-29T00:32:56;20.70;99.90
4453;DHT22;2239;48.152;11.584;2022-07-29T00:35:22;20.60;99.90
4453;DHT22;2239;48.152;11.584;2022-07-29T00:38:06;20.50;99.90
4453;DHT22;2239;48.152;11.584;2022-07-29T00:40:32;20.50;99.90
4453;DHT22;2239;48.152;11.584;2022-07-29T00:42:57;20.50;99.90
4453;DHT22;2239;48.152;11.584;2022-07-29T00:45:23;20.40;99.90
4453;DHT22;2239;48.152;11.584;2022-07-29T00:47:50;20.50;99.90
4453;DHT22;2239;48.152;11.584;2022-07-29T00:50:16;20.50;99.90
4453;DHT22;2239;48.152;11.584;2022-07-29T00:52:42;20.60;99.90
4453;DHT22;2239;48.152;11.584;2022-07-29T00:55:11;20.60;99.90
4453;DHT22;2239;48.152;11.584;2022-07-29T00:57:37;20.70;99.90
4453;DHT22;2239;48.152;11.584;2022-07-29T01:00:05;20.70;99.90
4453;DHT22;2239;48.152;11.584;2022-07-29T01:02:32;20.70;99.90
4453;DHT22;2239;48.152;11.584;2022-07-29T01:04:58;20.60;99.90
4453;DHT22;2239;48.152;11.584;2022-07-29T01:07:25;20.70;99.90
4453;DHT22;2239;48.152;11.584;2022-07-29T01:09:52;20.80;99.90
4453;DHT22;2239;48.152;11.584;2022-07-29T01:12:21;20.80;99.90
4453;DHT22;2239;48.152;11.584;2022-07-29T01:14:49;20.80;99.90
4453;DHT22;2239;48.152;11.584;2022-07-29T01:17:26;20.80;99.90
4453;DHT22;2239;48.152;11.584;2022-07-29T01:30:33;20.80;99.90
4453;DHT22;2239;48.152;11.584;2022-07-29T01:33:03;20.80;99.90
4453;DHT22;2239;48.152;11.584;2022-07-29T01:35:42;20.80;99.90
4453;DHT22;2239;48.152;11.584;2022-07-29T01:38:21;20.90;99.90
4453;DHT22;2239;48.152;11.584;2022-07-29T01:40:53;20.90;99.90
4453;DHT22;2239;48.152;11.584;2022-07-29T01:43:31;21.00;99.90
4453;DHT22;2239;48.152;11.584;2022-07-29T01:46:01;21.00;99.70
4453;DHT22;2239;48.152;11.584;2022-07-29T01:48:47;21.10;99.40
4453;DHT22;2239;48.152;11.584;2022-07-29T01:51:20;21.20;99.40
4453;DHT22;2239;48.152;11.584;2022-07-29T01:54:13;21.20;99.90
4453;DHT22;2239;48.152;11.584;2022-07-29T01:56:40;21.10;99.90
4453;DHT22;2239;48.152;11.584;2022-07-29T01:59:08;21.00;99.90
4453;DHT22;2239;48.152;11.584;2022-07-29T02:01:36;20.90;99.90
4453;DHT22;2239;48.152;11.584;2022-07-29T02:04:04;20.70;99.90
4453;DHT22;2239;48.152;11.584;2022-07-29T02:06:32;20.70;99.90
4453;DHT22;2239;48.152;11.584;2022-07-29T02:08:59;20.70;99.90
4453;DHT22;2239;48.152;11.584;2022-07-29T02:11:25;20.60;99.90
4453;DHT22;2239;48.152;11.584;2022-07-29T02:13:54;20.60;99.90
4453;DHT22;2239;48.152;11.584;2022-07-29T02:16:23;20.50;99.90
4453;DHT22;2239;48.152;11.584;2022-07-29T02:18:52;20.40;99.90
4453;DHT22;2239;48.152;11.584;2022-07-29T02:21:21;20.30;99.90
4453;DHT22;2239;48.152;11.584;2022-07-29T02:23:48;20.30;99.90
4453;DHT22;2239;48.152;11.584;2022-07-29T02:26:15;20.20;99.90
4453;DHT22;2239;48.152;11.584;2022-07-29T02:28:42;20.20;99.90
4453;DHT22;2239;48.152;11.584;2022-07-29T02:31:09;20.20;99.90
4453;DHT22;2239;48.152;11.584;2022-07-29T02:33:35;20.20;99.90
4453;DHT22;2239;48.152;11.584;2022-07-29T02:36:02;20.10;99.90
4453;DHT22;2239;48.152;11.584;2022-07-29T02:38:29;20.20;99.90
4453;DHT22;2239;48.152;11.584;2022-07-29T02:41:19;20.10;99.90
4453;DHT22;2239;48.152;11.584;2022-07-29T02:43:48;20.10;99.90
4453;DHT22;2239;48.152;11.584;2022-07-29T02:46:19;20.20;99.90
4453;DHT22;2239;48.152;11.584;2022-07-29T02:48:57;20.20;99.90
4453;DHT22;2239;48.152;11.584;2022-07-29T02:51:28;20.20;99.90
4453;DHT22;2239;48.152;11.584;2022-07-29T02:53:56;20.20;99.90
4453;DHT22;2239;48.152;11.584;2022-07-29T02:56:27;20.20;99.90
4453;DHT22;2239;48.152;11.584;2022-07-29T02:58:59;20.20;99.90
4453;DHT22;2239;48.152;11.584;2022-07-29T03:01:29;20.20;99.90
4453;DHT22;2239;48.152;11.584;2022-07-29T03:03:55;20.30;99.90
4453;DHT22;2239;48.152;11.584;2022-07-29T03:06:23;20.20;99.90
4453;DHT22;2239;48.152;11.584;2022-07-29T03:08:51;20.20;99.90
4453;DHT22;2239;48.152;11.584;2022-07-29T03:11:17;20.10;99.90
4453;DHT22;2239;48.152;11.584;2022-07-29T03:13:44;20.10;99.90
4453;DHT22;2239;48.152;11.584;2022-07-29T03:16:10;20.00;99.90
4453;DHT22;2239;48.152;11.584;2022-07-29T03:18:37;20.00;99.90
4453;DHT22;2239;48.152;11.584;2022-07-29T03:21:03;20.00;99.90
4453;DHT22;2239;48.152;11.584;2022-07-29T03:23:30;20.00;99.90
4453;DHT22;2239;48.152;11.584;2022-07-29T03:25:55;20.00;99.90
4453;DHT22;2239;48.152;11.584;2022-07-29T03:28:22;19.90;99.90
4453;DHT22;2239;48.152;11.584;2022-07-29T03:30:48;19.90;99.90
4453;DHT22;2239;48.152;11.584;2022-07-29T03:33:15;19.80;99.90
4453;DHT22;2239;48.152;11.584;2022-07-29T03:35:40;19.80;99.90
4453;DHT22;2239;48.152;11.584;2022-07-29T03:38:06;19.80;99.90
4453;DHT22;2239;48.152;11.584;2022-07-29T03:40:45;19.70;99.90
4453;DHT22;2239;48.152;11.584;2022-07-29T03:43:12;19.60;99.90
4453;DHT22;2239;48.152;11.584;2022-07-29T03:45:43;19.50;99.90
4453;DHT22;2239;48.152;11.584;2022-07-29T03:48:12;19.40;99.90
4453;DHT22;2239;48.152;11.584;2022-07-29T03:50:39;19.40;99.90
4453;DHT22;2239;48.152;11.584;2022-07-29T03:53:05;19.50;99.90
4453;DHT22;2239;48.152;11.584;2022-07-29T03:55:40;19.40;99.90
4453;DHT22;2239;48.152;11.584;2022-07-29T03:58:07;19.30;99.90
4453;DHT22;2239;48.152;11.584;2022-07-29T04:00:34;19.30;99.90
4453;DHT22;2239;48.152;11.584;2022-07-29T04:03:01;19.20;99.90
4453;DHT22;2239;48.152;11.584;2022-07-29T04:05:28;19.20;99.90
4453;DHT22;2239;48.152;11.584;2022-07-29T04:07:54;19.20;99.90
4453;DHT22;2239;48.152;11.584;2022-07-29T04:10:20;19.20;99.90
4453;DHT22;2239;48.152;11.584;2022-07-29T04:12:45;19.20;99.90
4453;DHT22;2239;48.152;11.584;2022-07-29T04:15:11;19.20;99.90
4453;DHT22;2239;48.152;11.584;2022-07-29T04:17:38;19.20;99.90
4453;DHT22;2239;48.152;11.584;2022-07-29T04:20:04;19.20;99.90
4453;DHT22;2239;48.152;11.584;2022-07-29T04:22:30;19.10;99.90
4453;DHT22;2239;48.152;11.584;2022-07-29T04:24:56;19.20;99.90
4453;DHT22;2239;48.152;11.584;2022-07-29T04:27:21;19.20;99.90
4453;DHT22;2239;48.152;11.584;2022-07-29T04:29:47;19.20;99.90
4453;DHT22;2239;48.152;11.584;2022-07-29T04:32:13;19.30;99.90
4453;DHT22;2239;48.152;11.584;2022-07-29T04:34:38;19.30;99.90
4453;DHT22;2239;48.152;11.584;2022-07-29T04:37:04;19.30;99.90
4453;DHT22;2239;48.152;11.584;2022-07-29T04:39:29;19.30;99.90
4453;DHT22;2239;48.152;11.584;2022-07-29T04:41:55;19.30;99.90
4453;DHT22;2239;48.152;11.584;2022-07-29T04:44:21;19.40;99.90
4453;DHT22;2239;48.152;11.584;2022-07-29T04:46:47;19.40;99.90
4453;DHT22;2239;48.152;11.584;2022-07-29T04:49:13;19.50;99.90
4453;DHT22;2239;48.152;11.584;2022-07-29T04:51:38;19.60;99.90
4453;DHT22;2239;48.152;11.584;2022-07-29T04:54:04;19.60;99.90
4453;DHT22;2239;48.152;11.584;2022-07-29T04:56:30;19.70;99.90
4453;DHT22;2239;48.152;11.584;2022-07-29T04:58:56;19.80;99.90
4453;DHT22;2239;48.152;11.584;2022-07-29T05:01:21;20.00;99.90
4453;DHT22;2239;48.152;11.584;2022-07-29T05:03:47;20.10;99.90
4453;DHT22;2239;48.152;11.584;2022-07-29T05:06:12;20.30;99.90
4453;DHT22;2239;48.152;11.584;2022-07-29T05:08:38;20.30;99.90
4453;DHT22;2239;48.152;11.584;2022-07-29T05:11:04;20.40;99.90
4453;DHT22;2239;48.152;11.584;2022-07-29T05:13:30;20.50;99.90
4453;DHT22;2239;48.152;11.584;2022-07-29T05:15:55;20.60;99.90
4453;DHT22;2239;48.152;11.584;2022-07-29T05:18:24;20.70;99.90
4453;DHT22;2239;48.152;11.584;2022-07-29T05:20:49;20.80;99.90
4453;DHT22;2239;48.152;11.584;2022-07-29T05:23:15;20.80;99.90
4453;DHT22;2239;48.152;11.584;2022-07-29T05:25:41;21.00;99.90
4453;DHT22;2239;48.152;11.584;2022-07-29T05:28:06;21.00;99.90
4453;DHT22;2239;48.152;11.584;2022-07-29T05:30:32;21.00;99.90
4453;DHT22;2239;48.152;11.584;2022-07-29T05:32:58;21.10;99.90
4453;DHT22;2239;48.152;11.584;2022-07-29T05:35:23;21.20;99.90
4453;DHT22;2239;48.152;11.584;2022-07-29T05:37:49;21.30;99.90
4453;DHT22;2239;48.152;11.584;2022-07-29T05:40:15;21.40;99.90
4453;DHT22;2239;48.152;11.584;2022-07-29T05:42:41;21.50;99.90
4453;DHT22;2239;48.152;11.584;2022-07-29T05:45:07;21.50;99.90
4453;DHT22;2239;48.152;11.584;2022-07-29T05:47:34;21.60;99.90
4453;DHT22;2239;48.152;11.584;2022-07-29T05:49:59;21.70;99.90
4453;DHT22;2239;48.152;11.584;2022-07-29T05:52:25;21.80;99.90
4453;DHT22;2239;48.152;11.584;2022-07-29T05:54:51;21.80;99.90
4453;DHT22;2239;48.152;11.584;2022-07-29T05:57:21;21.90;99.90
4453;DHT22;2239;48.152;11.584;2022-07-29T05:59:48;22.00;99.90
4453;DHT22;2239;48.152;11.584;2022-07-29T06:02:15;22.10;99.90
4453;DHT22;2239;48.152;11.584;2022-07-29T06:04:41;22.20;99.90
4453;DHT22;2239;48.152;11.584;2022-07-29T06:07:06;22.30;99.90
4453;DHT22;2239;48.152;11.584;2022-07-29T06:09:33;22.40;99.90
4453;DHT22;2239;48.152;11.584;2022-07-29T06:11:59;22.40;99.90
4453;DHT22;2239;48.152;11.584;2022-07-29T06:14:25;22.50;99.90
4453;DHT22;2239;48.152;11.584;2022-07-29T06:16:52;22.50;99.90
4453;DHT22;2239;48.152;11.584;2022-07-29T06:19:18;22.60;99.90
4453;DHT22;2239;48.152;11.584;2022-07-29T06:21:46;22.60;99.90
4453;DHT22;2239;48.152;11.584;2022-07-29T06:24:13;22.70;99.90
4453;DHT22;2239;48.152;11.584;2022-07-29T06:26:39;23.00;99.90
4453;DHT22;2239;48.152;11.584;2022-07-29T06:29:06;23.10;99.90
4453;DHT22;2239;48.152;11.584;2022-07-29T06:31:32;23.20;99.90
4453;DHT22;2239;48.152;11.584;2022-07-29T06:33:57;23.40;99.90
4453;DHT22;2239;48.152;11.584;2022-07-29T06:36:23;23.40;99.90
4453;DHT22;2239;48.152;11.584;2022-07-29T06:38:49;23.30;99.90
4453;DHT22;2239;48.152;11.584;2022-07-29T06:41:14;23.30;99.90
4453;DHT22;2239;48.152;11.584;2022-07-29T06:43:42;23.40;99.90
4453;DHT22;2239;48.152;11.584;2022-07-29T06:46:11;23.50;99.90
4453;DHT22;2239;48.152;11.584;2022-07-29T06:48:38;23.60;99.70
4453;DHT22;2239;48.152;11.584;2022-07-29T06:51:05;23.70;99.40
4453;DHT22;2239;48.152;11.584;2022-07-29T06:53:32;23.90;99.10
4453;DHT22;2239;48.152;11.584;2022-07-29T06:55:59;24.00;98.70
4453;DHT22;2239;48.152;11.584;2022-07-29T06:58:26;24.20;98.70
4453;DHT22;2239;48.152;11.584;2022-07-29T07:00:52;24.30;98.20
4453;DHT22;2239;48.152;11.584;2022-07-29T07:03:18;24.30;97.60
4453;DHT22;2239;48.152;11.584;2022-07-29T07:05:45;24.30;97.10
4453;DHT22;2239;48.152;11.584;2022-07-29T07:08:11;24.20;97.10
4453;DHT22;2239;48.152;11.584;2022-07-29T07:10:37;24.30;97.30
4453;DHT22;2239;48.152;11.584;2022-07-29T07:13:04;24.30;97.10
4453;DHT22;2239;48.152;11.584;2022-07-29T07:15:30;24.40;96.70
4453;DHT22;2239;48.152;11.584;2022-07-29T07:17:55;24.50;96.40
4453;DHT22;2239;48.152;11.584;2022-07-29T07:20:22;24.60;96.40
4453;DHT22;2239;48.152;11.584;2022-07-29T07:22:48;24.70;96.00
4453;DHT22;2239;48.152;11.584;2022-07-29T07:25:13;24.80;96.00
4453;DHT22;2239;48.152;11.584;2022-07-29T07:27:39;24.80;96.00
4453;DHT22;2239;48.152;11.584;2022-07-29T07:30:06;25.00;95.70
4453;DHT22;2239;48.152;11.584;2022-07-29T07:32:35;25.10;95.00
4453;DHT22;2239;48.152;11.584;2022-07-29T07:35:01;25.20;94.90
4453;DHT22;2239;48.152;11.584;2022-07-29T07:37:27;25.30;94.60
4453;DHT22;2239;48.152;11.584;2022-07-29T07:39:53;25.50;94.50
4453;DHT22;2239;48.152;11.584;2022-07-29T07:42:19;25.60;93.30
4453;DHT22;2239;48.152;11.584;2022-07-29T07:44:45;25.80;93.80
4453;DHT22;2239;48.152;11.584;2022-07-29T07:47:14;25.90;92.90
4453;DHT22;2239;48.152;11.584;2022-07-29T07:49:40;26.00;92.20
4453;DHT22;2239;48.152;11.584;2022-07-29T07:52:06;26.00;90.90
4453;DHT22;2239;48.152;11.584;2022-07-29T07:54:32;26.20;90.80
4453;DHT22;2239;48.152;11.584;2022-07-29T07:56:58;26.40;91.20
4453;DHT22;2239;48.152;11.584;2022-07-29T07:59:23;26.50;91.00
4453;DHT22;2239;48.152;11.584;2022-07-29T08:01:49;26.70;91.30
4453;DHT22;2239;48.152;11.584;2022-07-29T08:04:15;26.80;90.90
4453;DHT22;2239;48.152;11.584;2022-07-29T08:06:42;26.80;90.50
4453;DHT22;2239;48.152;11.584;2022-07-29T08:09:08;26.80;90.40
4453;DHT22;2239;48.152;11.584;2022-07-29T08:11:33;26.90;90.40
4453;DHT22;2239;48.152;11.584;2022-07-29T08:13:59;27.00;90.30
4453;DHT22;2239;48.152;11.584;2022-07-29T08:16:27;27.10;89.30
4453;DHT22;2239;48.152;11.584;2022-07-29T08:18:53;27.10;88.20
4453;DHT22;2239;48.152;11.584;2022-07-29T08:21:22;27.10;88.10
4453;DHT22;2239;48.152;11.584;2022-07-29T08:23:49;27.20;88.40
4453;DHT22;2239;48.152;11.584;2022-07-29T08:26:18;27.20;87.90
4453;DHT22;2239;48.152;11.584;2022-07-29T08:28:44;27.40;88.30
4453;DHT22;2239;48.152;11.584;2022-07-29T08:31:12;27.60;87.40
4453;DHT22;2239;48.152;11.584;2022-07-29T08:33:38;27.90;86.70
4453;DHT22;2239;48.152;11.584;2022-07-29T08:36:05;28.10;85.50
4453;DHT22;2239;48.152;11.584;2022-07-29T08:38:31;28.40;84.70
4453;DHT22;2239;48.152;11.584;2022-07-29T08:40:59;28.50;82.90
4453;DHT22;2239;48.152;11.584;2022-07-29T08:43:25;28.60;83.00
4453;DHT22;2239;48.152;11.584;2022-07-29T08:45:51;28.70;82.20
4453;DHT22;2239;48.152;11.584;2022-07-29T08:48:19;28.70;82.90
4453;DHT22;2239;48.152;11.584;2022-07-29T08:50:47;28.50;81.90
4453;DHT22;2239;48.152;11.584;2022-07-29T08:53:15;28.50;82.50
4453;DHT22;2239;48.152;11.584;2022-07-29T08:55:44;28.50;82.00
4453;DHT22;2239;48.152;11.584;2022-07-29T08:58:11;28.60;82.70
4453;DHT22;2239;48.152;11.584;2022-07-29T09:00:42;28.70;81.80
4453;DHT22;2239;48.152;11.584;2022-07-29T09:03:09;28.60;81.50
4453;DHT22;2239;48.152;11.584;2022-07-29T09:05:40;28.40;82.10
4453;DHT22;2239;48.152;11.584;2022-07-29T09:08:06;28.40;82.40
4453;DHT22;2239;48.152;11.584;2022-07-29T09:10:35;28.40;81.90
4453;DHT22;2239;48.152;11.584;2022-07-29T09:13:00;28.40;82.20
4453;DHT22;2239;48.152;11.584;2022-07-29T09:15:26;28.50;82.40
4453;DHT22;2239;48.152;11.584;2022-07-29T09:17:52;28.70;82.70
4453;DHT22;2239;48.152;11.584;2022-07-29T09:20:21;28.90;81.80
4453;DHT22;2239;48.152;11.584;2022-07-29T09:22:47;29.30;81.40
4453;DHT22;2239;48.152;11.584;2022-07-29T09:25:31;29.60;80.20
4453;DHT22;2239;48.152;11.584;2022-07-29T09:28:06;29.90;79.30
4453;DHT22;2239;48.152;11.584;2022-07-29T09:30:32;30.20;78.80
4453;DHT22;2239;48.152;11.584;2022-07-29T09:32:59;30.20;78.10
4453;DHT22;2239;48.152;11.584;2022-07-29T09:35:27;30.10;78.20
4453;DHT22;2239;48.152;11.584;2022-07-29T09:37:54;30.20;78.40
4453;DHT22;2239;48.152;11.584;2022-07-29T09:40:23;30.00;78.30
4453;DHT22;2239;48.152;11.584;2022-07-29T09:42:50;30.00;78.50
4453;DHT22;2239;48.152;11.584;2022-07-29T09:45:31;29.80;77.70
4453;DHT22;2239;48.152;11.584;2022-07-29T09:47:57;29.50;77.70
4453;DHT22;2239;48.152;11.584;2022-07-29T09:50:40;29.20;78.70
4453;DHT22;2239;48.152;11.584;2022-07-29T09:53:06;28.70;79.90
4453;DHT22;2239;48.152;11.584;2022-07-29T09:55:49;28.50;81.10
4453;DHT22;2239;48.152;11.584;2022-07-29T09:58:19;28.20;81.60
4453;DHT22;2239;48.152;11.584;2022-07-29T10:00:46;28.10;82.90
4453;DHT22;2239;48.152;11.584;2022-07-29T10:03:13;28.10;82.80
4453;DHT22;2239;48.152;11.584;2022-07-29T10:05:39;28.10;83.00
4453;DHT22;2239;48.152;11.584;2022-07-29T10:08:06;28.20;82.90
4453;DHT22;2239;48.152;11.584;2022-07-29T10:10:38;28.40;82.50
4453;DHT22;2239;48.152;11.584;2022-07-29T10:13:11;28.60;82.30
4453;DHT22;2239;48.152;11.584;2022-07-29T10:15:39;28.60;82.00
4453;DHT22;2239;48.152;11.584;2022-07-29T10:18:11;28.40;82.30
4453;DHT22;2239;48.152;11.584;2022-07-29T10:20:38;28.20;83.30
4453;DHT22;2239;48.152;11.584;2022-07-29T10:23:04;28.10;83.70
4453;DHT22;2239;48.152;11.584;2022-07-29T10:25:30;28.10;83.70
4453;DHT22;2239;48.152;11.584;2022-07-29T10:27:56;28.40;82.50
4453;DHT22;2239;48.152;11.584;2022-07-29T10:30:24;28.70;82.50
4453;DHT22;2239;48.152;11.584;2022-07-29T10:44:09;28.80;80.60
4453;DHT22;2239;48.152;11.584;2022-07-29T10:46:39;28.60;80.00
4453;DHT22;2239;48.152;11.584;2022-07-29T10:57:23;29.00;79.80
4453;DHT22;2239;48.152;11.584;2022-07-29T11:07:32;30.40;76.80
4453;DHT22;2239;48.152;11.584;2022-07-29T11:15:17;31.20;73.00
4453;DHT22;2239;48.152;11.584;2022-07-29T11:20:44;30.70;73.00
4453;DHT22;2239;48.152;11.584;2022-07-29T11:29:17;29.80;72.10
4453;DHT22;2239;48.152;11.584;2022-07-29T11:31:46;29.60;72.40
4453;DHT22;2239;48.152;11.584;2022-07-29T11:34:32;29.80;73.10
4453;DHT22;2239;48.152;11.584;2022-07-29T11:39:37;30.00;72.50
4453;DHT22;2239;48.152;11.584;2022-07-29T11:50:16;30.30;71.10
4453;DHT22;2239;48.152;11.584;2022-07-29T11:52:46;30.20;71.90
4453;DHT22;2239;48.152;11.584;2022-07-29T11:55:18;30.00;70.30
4453;DHT22;2239;48.152;11.584;2022-07-29T11:57:49;30.10;70.20
4453;DHT22;2239;48.152;11.584;2022-07-29T12:00:36;30.00;69.80
4453;DHT22;2239;48.152;11.584;2022-07-29T12:03:07;30.00;68.10
4453;DHT22;2239;48.152;11.584;2022-07-29T12:05:41;29.90;68.60
4453;DHT22;2239;48.152;11.584;2022-07-29T12:10:34;29.80;68.40
4453;DHT22;2239;48.152;11.584;2022-07-29T12:13:00;29.90;68.10
4453;DHT22;2239;48.152;11.584;2022-07-29T12:15:26;29.70;68.50
4453;DHT22;2239;48.152;11.584;2022-07-29T12:17:52;29.70;69.60
4453;DHT22;2239;48.152;11.584;2022-07-29T12:20:27;29.70;70.00
4453;DHT22;2239;48.152;11.584;2022-07-29T12:22:53;29.80;70.10
4453;DHT22;2239;48.152;11.584;2022-07-29T12:25:21;29.80;70.90
4453;DHT22;2239;48.152;11.584;2022-07-29T12:27:47;29.80;70.30
4453;DHT22;2239;48.152;11.584;2022-07-29T12:30:22;29.80;70.00
4453;DHT22;2239;48.152;11.584;2022-07-29T12:32:48;29.90;70.00
4453;DHT22;2239;48.152;11.584;2022-07-29T12:35:17;29.90;70.20
4453;DHT22;2239;48.152;11.584;2022-07-29T12:37:46;29.80;70.30
4453;DHT22;2239;48.152;11.584;2022-07-29T12:40:18;29.90;70.50
4453;DHT22;2239;48.152;11.584;2022-07-29T12:43:15;29.80;70.60
4453;DHT22;2239;48.152;11.584;2022-07-29T12:45:43;29.90;70.60
4453;DHT22;2239;48.152;11.584;2022-07-29T12:48:09;30.10;69.80
4453;DHT22;2239;48.152;11.584;2022-07-29T12:50:37;30.30;70.30
4453;DHT22;2239;48.152;11.584;2022-07-29T12:53:13;30.60;70.20
4453;DHT22;2239;48.152;11.584;2022-07-29T12:55:49;30.40;69.90
4453;DHT22;2239;48.152;11.584;2022-07-29T12:58:28;29.90;69.70
4453;DHT22;2239;48.152;11.584;2022-07-29T13:01:11;29.70;70.50
4453;DHT22;2239;48.152;11.584;2022-07-29T13:03:57;29.70;70.10
4453;DHT22;2239;48.152;11.584;2022-07-29T13:06:39;29.50;70.30
4453;DHT22;2239;48.152;11.584;2022-07-29T13:11:41;29.10;70.60
4453;DHT22;2239;48.152;11.584;2022-07-29T13:14:09;29.00;70.30
4453;DHT22;2239;48.152;11.584;2022-07-29T13:16:36;28.80;70.80
4453;DHT22;2239;48.152;11.584;2022-07-29T13:19:10;28.70;71.50
4453;DHT22;2239;48.152;11.584;2022-07-29T13:21:38;28.60;71.40
4453;DHT22;2239;48.152;11.584;2022-07-29T13:24:06;28.50;71.80
4453;DHT22;2239;48.152;11.584;2022-07-29T13:26:32;28.40;72.20
4453;DHT22;2239;48.152;11.584;2022-07-29T13:28:58;28.20;73.20
4453;DHT22;2239;48.152;11.584;2022-07-29T13:31:24;28.10;74.60
4453;DHT22;2239;48.152;11.584;2022-07-29T13:33:50;28.00;75.00
4453;DHT22;2239;48.152;11.584;2022-07-29T13:36:16;28.00;75.10
4453;DHT22;2239;48.152;11.584;2022-07-29T13:38:42;27.90;74.70
4453;DHT22;2239;48.152;11.584;2022-07-29T13:41:07;27.90;75.00
4453;DHT22;2239;48.152;11.584;2022-07-29T13:43:33;27.90;75.30
4453;DHT22;2239;48.152;11.584;2022-07-29T13:45:59;27.80;75.30
4453;DHT22;2239;48.152;11.584;2022-07-29T13:48:25;27.80;75.70
4453;DHT22;2239;48.152;11.584;2022-07-29T13:50:51;27.80;75.60
4453;DHT22;2239;48.152;11.584;2022-07-29T13:53:16;27.70;75.70
4453;DHT22;2239;48.152;11.584;2022-07-29T13:55:42;27.80;76.10
4453;DHT22;2239;48.152;11.584;2022-07-29T13:58:08;27.80;76.20
4453;DHT22;2239;48.152;11.584;2022-07-29T14:00:34;27.80;75.90
4453;DHT22;2239;48.152;11.584;2022-07-29T14:02:59;27.80;75.90
4453;DHT22;2239;48.152;11.584;2022-07-29T14:05:25;28.00;76.20
4453;DHT22;2239;48.152;11.584;2022-07-29T14:07:51;28.10;75.90
4453;DHT22;2239;48.152;11.584;2022-07-29T14:10:16;28.30;75.20
4453;DHT22;2239;48.152;11.584;2022-07-29T14:12:42;28.50;75.20
4453;DHT22;2239;48.152;11.584;2022-07-29T14:15:08;28.50;75.50
4453;DHT22;2239;48.152;11.584;2022-07-29T14:17:34;28.50;75.30
4453;DHT22;2239;48.152;11.584;2022-07-29T14:20:00;28.30;74.30
4453;DHT22;2239;48.152;11.584;2022-07-29T14:22:26;28.30;74.40
4453;DHT22;2239;48.152;11.584;2022-07-29T14:24:51;28.30;74.30
4453;DHT22;2239;48.152;11.584;2022-07-29T14:27:18;28.40;74.40
4453;DHT22;2239;48.152;11.584;2022-07-29T14:29:43;28.30;73.50
4453;DHT22;2239;48.152;11.584;2022-07-29T14:32:09;28.30;73.10
4453;DHT22;2239;48.152;11.584;2022-07-29T14:34:36;28.30;73.20
4453;DHT22;2239;48.152;11.584;2022-07-29T14:37:02;28.20;73.70
4453;DHT22;2239;48.152;11.584;2022-07-29T14:39:30;28.20;74.00
4453;DHT22;2239;48.152;11.584;2022-07-29T14:41:56;28.20;74.20
4453;DHT22;2239;48.152;11.584;2022-07-29T14:44:22;28.20;74.60
4453;DHT22;2239;48.152;11.584;2022-07-29T14:46:48;28.20;74.50
4453;DHT22;2239;48.152;11.584;2022-07-29T14:49:14;28.20;74.20
4453;DHT22;2239;48.152;11.584;2022-07-29T14:51:40;28.20;74.80
4453;DHT22;2239;48.152;11.584;2022-07-29T14:54:06;28.20;75.00
4453;DHT22;2239;48.152;11.584;2022-07-29T14:56:32;28.00;74.60
4453;DHT22;2239;48.152;11.584;2022-07-29T14:58:58;28.00;75.30
4453;DHT22;2239;48.152;11.584;2022-07-29T15:01:24;27.80;75.30
4453;DHT22;2239;48.152;11.584;2022-07-29T15:03:50;27.80;75.70
4453;DHT22;2239;48.152;11.584;2022-07-29T15:06:16;27.70;76.30
4453;DHT22;2239;48.152;11.584;2022-07-29T15:08:41;27.60;76.70
4453;DHT22;2239;48.152;11.584;2022-07-29T15:11:07;27.60;77.40
4453;DHT22;2239;48.152;11.584;2022-07-29T15:13:33;27.60;77.40
4453;DHT22;2239;48.152;11.584;2022-07-29T15:15:59;27.60;76.90
4453;DHT22;2239;48.152;11.584;2022-07-29T15:18:25;27.60;76.50
4453;DHT22;2239;48.152;11.584;2022-07-29T15:20:51;27.60;77.30
4453;DHT22;2239;48.152;11.584;2022-07-29T15:23:17;27.50;77.40
4453;DHT22;2239;48.152;11.584;2022-07-29T15:25:42;27.40;77.60
4453;DHT22;2239;48.152;11.584;2022-07-29T15:28:08;27.40;78.40
4453;DHT22;2239;48.152;11.584;2022-07-29T15:30:35;27.30;79.00
4453;DHT22;2239;48.152;11.584;2022-07-29T15:33:07;27.20;79.70
4453;DHT22;2239;48.152;11.584;2022-07-29T15:35:34;27.10;80.40
4453;DHT22;2239;48.152;11.584;2022-07-29T15:38:00;27.00;81.10
4453;DHT22;2239;48.152;11.584;2022-07-29T15:40:27;27.00;81.80
4453;DHT22;2239;48.152;11.584;2022-07-29T15:42:53;26.90;82.30
4453;DHT22;2239;48.152;11.584;2022-07-29T15:45:19;26.80;83.20
4453;DHT22;2239;48.152;11.584;2022-07-29T15:47:45;26.80;83.90
4453;DHT22;2239;48.152;11.584;2022-07-29T15:50:10;26.70;84.30
4453;DHT22;2239;48.152;11.584;2022-07-29T15:52:41;26.70;84.70
4453;DHT22;2239;48.152;11.584;2022-07-29T15:55:08;26.60;85.20
4453;DHT22;2239;48.152;11.584;2022-07-29T15:57:34;26.50;86.30
4453;DHT22;2239;48.152;11.584;2022-07-29T16:00:00;26.40;87.00
4453;DHT22;2239;48.152;11.584;2022-07-29T16:02:25;26.30;88.60
4453;DHT22;2239;48.152;11.584;2022-07-29T16:04:51;26.10;88.30
4453;DHT22;2239;48.152;11.584;2022-07-29T16:07:17;26.00;88.80
4453;DHT22;2239;48.152;11.584;2022-07-29T16:09:43;26.00;89.30
4453;DHT22;2239;48.152;11.584;2022-07-29T16:12:09;25.90;89.20
4453;DHT22;2239;48.152;11.584;2022-07-29T16:14:34;25.90;89.60
4453;DHT22;2239;48.152;11.584;2022-07-29T16:17:00;25.90;90.10
4453;DHT22;2239;48.152;11.584;2022-07-29T16:19:31;25.80;89.90
4453;DHT22;2239;48.152;11.584;2022-07-29T16:21:57;25.80;90.30
4453;DHT22;2239;48.152;11.584;2022-07-29T16:24:22;25.70;90.30
4453;DHT22;2239;48.152;11.584;2022-07-29T16:26:54;25.70;90.30
4453;DHT22;2239;48.152;11.584;2022-07-29T16:29:20;25.70;90.40
4453;DHT22;2239;48.152;11.584;2022-07-29T16:31:45;25.70;90.50
4453;DHT22;2239;48.152;11.584;2022-07-29T16:34:11;25.60;90.70
4453;DHT22;2239;48.152;11.584;2022-07-29T16:36:37;25.60;90.50
4453;DHT22;2239;48.152;11.584;2022-07-29T16:39:02;25.50;90.80
4453;DHT22;2239;48.152;11.584;2022-07-29T16:41:30;25.50;91.10
4453;DHT22;2239;48.152;11.584;2022-07-29T16:43:55;25.50;91.20
4453;DHT22;2239;48.152;11.584;2022-07-29T16:46:23;25.50;91.10
4453;DHT22;2239;48.152;11.584;2022-07-29T16:48:49;25.40;91.50
4453;DHT22;2239;48.152;11.584;2022-07-29T16:51:15;25.30;91.70
4453;DHT22;2239;48.152;11.584;2022-07-29T16:53:41;25.20;91.80
4453;DHT22;2239;48.152;11.584;2022-07-29T16:56:08;25.20;92.00